createdAt,value
2023-01-11T04:02:14.695Z,98494.16
2023-01-11T04:05:26.444Z,98483.69
2023-01-11T04:08:36.542Z,98481.72
2023-01-11T04:11:46.835Z,98486.84
2023-01-11T04:14:56.920Z,98478.44
2023-01-11T04:18:07.930Z,98467.97
2023-01-11T04:21:19.320Z,98466.16
2023-01-11T04:24:29.229Z,98456.41
2023-01-11T04:27:39.276Z,98463.06
2023-01-11T04:30:49.345Z,98460.00
2023-01-11T04:33:59.428Z,98467.91
2023-01-11T04:37:12.025Z,98463.56
2023-01-11T04:40:22.045Z,98467.16
2023-01-11T04:43:31.119Z,98469.31
2023-01-11T04:46:41.020Z,98458.56
2023-01-11T04:49:51.440Z,98457.41
2023-01-11T04:53:02.873Z,98470.56
2023-01-11T04:56:13.371Z,98468.13
2023-01-11T04:59:23.715Z,98465.56
2023-01-11T05:02:33.810Z,98467.47
2023-01-11T05:05:43.767Z,98458.34
2023-01-11T05:08:57.113Z,98454.16
2023-01-11T05:12:07.481Z,98439.69
2023-01-11T05:15:17.651Z,98444.00
2023-01-11T05:18:27.728Z,98452.16
2023-01-11T05:21:39.300Z,98441.81
2023-01-11T05:24:50.607Z,98442.59
2023-01-11T05:28:00.575Z,98442.16
2023-01-11T05:31:10.544Z,98432.19
2023-01-11T05:34:23.367Z,98423.47
2023-01-11T05:37:33.450Z,98419.91
2023-01-11T05:40:44.903Z,98417.22
2023-01-11T05:44:08.190Z,98424.38
2023-01-11T05:47:18.303Z,98420.94
2023-01-11T05:50:28.464Z,98429.06
2023-01-11T05:53:38.400Z,98420.63
2023-01-11T05:56:49.651Z,98418.28
2023-01-11T06:00:02.404Z,98412.84
2023-01-11T08:07:10.764Z,98358.03
2023-01-11T08:10:22.727Z,98365.50
2023-01-11T08:13:43.792Z,98358.81
2023-01-11T08:16:54.039Z,98366.38
2023-01-11T08:20:04.193Z,98353.56
2023-01-11T08:23:15.618Z,98362.34
2023-01-11T08:26:26.975Z,98369.50
2023-01-11T08:29:37.103Z,98369.06
2023-01-11T08:32:47.123Z,98359.91
2023-01-11T08:35:57.216Z,98367.59
2023-01-11T08:39:08.481Z,98362.81
2023-01-11T08:42:18.850Z,98364.81
2023-01-11T08:45:28.866Z,98366.16
2023-01-11T08:48:38.952Z,98359.69
2023-01-11T08:51:49.138Z,98361.72
2023-01-11T08:55:00.408Z,98360.91
2023-01-11T08:58:10.421Z,98379.06
2023-01-11T09:01:20.395Z,98367.50
2023-01-11T09:04:30.523Z,98370.41
2023-01-11T09:07:40.714Z,98376.19
2023-01-11T09:10:52.849Z,98370.13
2023-01-11T09:14:03.051Z,98390.22
2023-01-11T09:17:12.954Z,98383.88
2023-01-11T09:20:24.906Z,98380.84
2023-01-11T09:23:35.064Z,98381.03
2023-01-11T09:26:46.523Z,98372.38
2023-01-11T09:29:56.743Z,98380.97
2023-01-11T09:33:07.273Z,98377.81
2023-01-11T09:36:21.675Z,98384.97
2023-01-11T09:39:31.717Z,98395.34
2023-01-11T09:42:44.521Z,98393.78
2023-01-11T09:45:58.811Z,98405.13
2023-01-11T09:49:16.259Z,98402.53
2023-01-11T09:52:33.082Z,98403.13
2023-01-11T09:55:47.057Z,98406.72
2023-01-11T09:59:11.410Z,98430.50
2023-01-11T10:02:36.002Z,98424.69
2023-01-11T10:06:01.302Z,98436.53
2023-01-11T10:18:26.288Z,98443.88
2023-01-11T10:31:30.688Z,98443.66
2023-01-11T10:35:00.755Z,98442.84
2023-01-11T10:42:05.893Z,98446.34
2023-01-11T10:45:19.303Z,98448.81
2023-01-11T10:48:33.653Z,98451.75
2023-01-11T10:51:49.367Z,98449.41
2023-01-11T10:55:01.237Z,98444.78
2023-01-11T10:58:27.960Z,98434.72
2023-01-11T11:01:50.988Z,98433.91
2023-01-11T11:05:15.028Z,98428.72
2023-01-11T11:08:32.039Z,98416.03
2023-01-11T11:11:47.175Z,98418.88
2023-01-11T11:15:07.714Z,98424.31
2023-01-11T11:18:18.126Z,98431.81
2023-01-11T11:21:31.827Z,98419.59
2023-01-11T11:24:48.951Z,98414.84
2023-01-11T11:28:03.929Z,98414.63
2023-01-11T11:31:15.390Z,98432.72
2023-01-11T11:34:27.637Z,98426.84
2023-01-11T11:37:45.641Z,98429.00
2023-01-11T11:41:13.118Z,98428.75
2023-01-11T11:44:26.702Z,98429.00
2023-01-11T11:51:23.109Z,98446.75
2023-01-11T11:54:36.065Z,98445.84
2023-01-11T11:57:49.412Z,98437.72
2023-01-11T12:01:00.652Z,98445.13
2023-01-11T12:04:16.450Z,98441.81
2023-01-11T12:07:34.267Z,98442.31
2023-01-11T12:10:50.204Z,98436.09
2023-01-11T12:14:05.663Z,98428.66
2023-01-11T12:17:25.605Z,98433.22
2023-01-11T12:20:42.418Z,98432.84
2023-01-11T12:24:11.895Z,98442.94
2023-01-11T12:27:37.637Z,98451.94
2023-01-11T12:31:02.527Z,98441.22
2023-01-11T12:34:30.285Z,98457.91
2023-01-11T12:38:01.973Z,98471.06
2023-01-11T12:41:47.618Z,98471.53
2023-01-11T12:45:09.953Z,98489.19
2023-01-11T12:48:38.563Z,98486.50
2023-01-11T12:52:08.432Z,98496.78
2023-01-11T12:55:34.595Z,98501.00
2023-01-11T12:58:51.148Z,98492.41
2023-01-11T13:02:17.641Z,98492.28
2023-01-11T13:05:38.877Z,98492.59
2023-01-11T13:08:57.453Z,98499.34
2023-01-11T13:12:14.937Z,98498.78
2023-01-11T13:15:42.109Z,98502.53
2023-01-11T13:18:59.334Z,98501.56
2023-01-11T13:22:17.977Z,98507.09
2023-01-11T13:25:30.982Z,98505.88
2023-01-11T13:28:45.118Z,98512.91
2023-01-11T13:31:59.723Z,98507.41
2023-01-11T13:35:16.976Z,98508.28
2023-01-11T13:38:37.568Z,98526.41
2023-01-11T13:41:51.576Z,98513.34
2023-01-11T13:45:08.761Z,98517.84
2023-01-11T13:48:26.657Z,98525.72
2023-01-11T13:51:43.778Z,98525.78
2023-01-11T13:55:02.093Z,98538.44
2023-01-11T13:58:18.350Z,98545.19
2023-01-11T14:01:39.464Z,98537.81
2023-01-11T14:04:56.408Z,98534.47
2023-01-11T14:08:23.463Z,98544.75
2023-01-11T14:11:45.773Z,98548.09
2023-01-11T14:15:19.962Z,98558.91
2023-01-11T14:18:37.067Z,98565.97
2023-01-11T14:22:02.004Z,98575.28
2023-01-11T14:25:19.547Z,98585.09
2023-01-11T14:28:47.888Z,98608.09
2023-01-11T14:32:15.099Z,98609.19
2023-01-11T14:35:51.966Z,98607.06
2023-01-11T14:39:18.954Z,98606.47
2023-01-11T14:42:47.967Z,98623.25
2023-01-11T14:46:17.673Z,98629.19
2023-01-11T14:49:44.451Z,98643.84
2023-01-11T14:52:59.431Z,98651.22
2023-01-11T14:56:33.698Z,98659.72
2023-01-11T14:59:44.214Z,98659.84
2023-01-11T15:03:31.238Z,98655.81
2023-01-11T15:06:54.509Z,98661.94
2023-01-11T15:10:26.196Z,98674.00
2023-01-11T15:13:44.463Z,98676.44
2023-01-11T15:17:09.092Z,98694.91
2023-01-11T15:20:21.940Z,98683.88
2023-01-11T15:23:36.903Z,98692.22
2023-01-11T15:26:49.783Z,98698.44
2023-01-11T15:30:00.322Z,98694.69
2023-01-11T15:33:30.446Z,98691.44
2023-01-11T15:36:56.321Z,98700.16
2023-01-11T15:40:15.232Z,98707.22
2023-01-11T15:43:50.896Z,98709.91
2023-01-11T15:47:18.872Z,98710.44
2023-01-11T15:50:44.946Z,98722.56
2023-01-11T15:54:13.847Z,98726.06
2023-01-11T15:57:46.376Z,98742.28
2023-01-11T16:01:09.091Z,98739.91
2023-01-11T16:04:29.960Z,98741.25
2023-01-11T16:07:46.425Z,98749.56
2023-01-11T16:11:09.718Z,98754.34
2023-01-11T16:14:40.359Z,98758.84
2023-01-11T16:17:56.926Z,98754.69
2023-01-11T16:21:12.865Z,98766.72
2023-01-11T16:24:28.939Z,98766.47
2023-01-11T16:27:40.693Z,98775.66
2023-01-11T16:30:57.849Z,98786.19
2023-01-11T16:34:08.462Z,98796.28
2023-01-11T16:37:24.056Z,98778.13
2023-01-11T16:40:38.611Z,98787.84
2023-01-11T16:43:54.198Z,98788.47
2023-01-11T16:47:12.325Z,98789.84
2023-01-11T16:50:25.240Z,98802.91
2023-01-11T16:53:36.406Z,98795.22
2023-01-11T16:56:49.435Z,98808.16
2023-01-11T17:00:04.657Z,98816.81
2023-01-11T17:03:19.502Z,98829.84
2023-01-11T17:06:35.777Z,98829.63
2023-01-11T17:09:49.497Z,98844.47
2023-01-11T17:13:35.316Z,98854.69
2023-01-11T17:16:50.370Z,98852.53
2023-01-11T17:20:01.870Z,98848.69
2023-01-11T17:23:16.420Z,98842.94
2023-01-11T17:26:29.155Z,98851.09
2023-01-11T17:29:41.367Z,98857.22
2023-01-11T17:32:55.068Z,98856.16
2023-01-11T17:36:05.673Z,98860.75
2023-01-11T17:39:23.901Z,98867.28
2023-01-11T17:42:45.578Z,98871.50
2023-01-11T17:45:58.175Z,98886.59
2023-01-11T17:49:22.176Z,98890.41
2023-01-11T17:52:43.840Z,98900.34
2023-01-11T17:56:02.272Z,98896.38
2023-01-11T17:59:22.235Z,98900.59
2023-01-11T18:02:32.290Z,98890.25
2023-01-11T18:05:44.324Z,98895.56
2023-01-11T18:08:56.598Z,98904.63
2023-01-11T18:12:09.047Z,98913.03
2023-01-11T18:15:28.834Z,98919.00
2023-01-11T18:18:42.927Z,98926.56
2023-01-11T18:21:56.185Z,98929.84
2023-01-11T18:25:18.814Z,98930.06
2023-01-11T18:28:31.265Z,98945.66
2023-01-11T18:31:42.714Z,98942.06
2023-01-11T18:34:55.098Z,98950.50
2023-01-11T18:38:14.800Z,98945.03
2023-01-11T18:41:35.809Z,98936.44
2023-01-11T18:44:49.862Z,98931.72
2023-01-11T18:47:59.966Z,98941.13
2023-01-11T18:51:15.289Z,98954.94
2023-01-11T18:54:26.786Z,98950.69
2023-01-11T18:57:36.754Z,98945.44
2023-01-11T19:00:46.933Z,98947.59
2023-01-11T19:03:56.998Z,98951.19
2023-01-11T19:07:07.021Z,98959.47
2023-01-11T19:10:21.816Z,98950.78
2023-01-11T19:13:32.020Z,98954.09
2023-01-11T19:16:42.003Z,98962.13
2023-01-11T19:19:52.134Z,98955.34
2023-01-11T19:23:02.167Z,98948.72
2023-01-11T19:26:13.660Z,98958.38
2023-01-11T19:29:25.427Z,98960.09
2023-01-11T19:32:35.437Z,98968.19
2023-01-11T19:35:47.676Z,98980.97
2023-01-11T19:38:57.702Z,98977.72
2023-01-11T19:42:09.089Z,98969.34
2023-01-11T19:45:19.277Z,98961.00
2023-01-11T19:48:29.343Z,98964.59
2023-01-11T19:51:40.075Z,98965.19
2023-01-11T19:54:51.321Z,98978.25
2023-01-11T19:58:03.506Z,98984.75
2023-01-11T20:01:14.705Z,98993.75
2023-01-11T20:04:25.887Z,98987.72
2023-01-11T20:07:35.956Z,98988.38
2023-01-11T20:10:46.317Z,98982.53
2023-01-11T20:13:57.821Z,98981.19
2023-01-11T20:17:07.944Z,98977.56
2023-01-11T20:20:18.060Z,98973.59
2023-01-11T20:23:30.584Z,98971.06
2023-01-11T20:26:40.827Z,98963.69
2023-01-11T20:29:52.278Z,98965.41
2023-01-11T20:33:02.269Z,98959.13
2023-01-11T20:36:14.299Z,98964.38
2023-01-11T20:39:25.478Z,98973.41
2023-01-11T20:42:35.481Z,98963.34
2023-01-11T20:45:56.329Z,98963.13
2023-01-11T20:49:07.578Z,98955.31
2023-01-11T20:52:17.811Z,98956.97
2023-01-11T20:55:28.006Z,98951.75
2023-01-11T20:58:38.131Z,98961.97
2023-01-11T21:01:50.601Z,98964.00
2023-01-11T21:05:00.659Z,98964.38
2023-01-11T21:08:11.129Z,98963.28
2023-01-11T21:11:21.168Z,98956.91
2023-01-11T21:14:31.928Z,98954.63
2023-01-11T21:17:43.235Z,98945.56
2023-01-11T21:20:53.592Z,98934.72
